createdAt,value
2018-05-03T00:00:59.746Z,67.18
2018-05-03T00:03:30.103Z,65.56
2018-05-03T00:05:59.209Z,64.84
2018-05-03T00:08:27.884Z,64.34
2018-05-03T00:10:56.741Z,63.75
2018-05-03T00:13:25.481Z,63.68
2018-05-03T00:15:54.208Z,64.77
2018-05-03T00:18:23.023Z,65.30
2018-05-03T00:20:51.722Z,66.71
2018-05-03T00:23:21.148Z,66.58
2018-05-03T00:25:49.911Z,66.91
2018-05-03T00:28:18.650Z,68.47
2018-05-03T00:30:47.378Z,67.50
2018-05-03T00:33:17.676Z,67.14
2018-05-03T00:35:46.429Z,66.26
2018-05-03T00:38:15.987Z,65.60
2018-05-03T00:40:46.169Z,65.61
2018-05-03T00:43:16.282Z,65.53
2018-05-03T00:45:45.876Z,65.72
2018-05-03T00:48:15.424Z,66.23
2018-05-03T00:50:46.017Z,67.06
2018-05-03T00:53:15.831Z,67.33
2018-05-03T00:55:46.132Z,67.49
2018-05-03T00:58:15.616Z,67.35
2018-05-03T01:00:45.777Z,67.39
2018-05-03T01:03:15.802Z,67.37
2018-05-03T01:05:45.646Z,68.13
2018-05-03T01:08:14.880Z,68.43
2018-05-03T01:10:45.069Z,68.74
2018-05-03T01:13:15.048Z,67.62
2018-05-03T01:15:43.976Z,67.08
2018-05-03T01:18:13.457Z,66.51
2018-05-03T01:20:42.636Z,65.08
2018-05-03T01:23:12.166Z,64.99
2018-05-03T01:25:40.925Z,64.65
2018-05-03T01:28:09.720Z,64.97
2018-05-03T01:30:38.443Z,64.75
2018-05-03T01:33:07.940Z,64.81
2018-05-03T01:35:48.927Z,64.98
2018-05-03T01:38:18.441Z,65.09
2018-05-03T01:40:47.666Z,64.57
2018-05-03T01:43:16.440Z,64.26
2018-05-03T01:45:45.857Z,64.05
2018-05-03T01:48:16.103Z,64.63
2018-05-03T01:50:45.388Z,66.25
2018-05-03T01:53:14.172Z,67.55
2018-05-03T01:55:42.907Z,67.24
2018-05-03T01:58:12.547Z,67.24
2018-05-03T02:00:41.991Z,66.54
2018-05-03T02:03:10.772Z,66.24
2018-05-03T02:05:39.494Z,65.90
2018-05-03T02:08:09.575Z,65.46
2018-05-03T02:10:39.154Z,65.04
2018-05-03T02:13:08.108Z,64.47
2018-05-03T02:15:37.126Z,65.22
2018-05-03T02:18:05.980Z,65.70
2018-05-03T02:20:35.488Z,65.55
2018-05-03T02:23:04.236Z,65.40
2018-05-03T02:25:33.497Z,65.24
2018-05-03T02:28:02.212Z,65.00
2018-05-03T02:30:30.956Z,64.72
2018-05-03T02:33:00.327Z,65.01
2018-05-03T02:35:29.510Z,64.91
2018-05-03T02:37:58.235Z,64.25
2018-05-03T02:40:27.063Z,64.40
2018-05-03T02:42:55.807Z,64.64
2018-05-03T02:45:25.303Z,64.19
2018-05-03T02:47:55.377Z,64.03
2018-05-03T02:50:24.766Z,64.46
2018-05-03T02:52:53.501Z,64.57
2018-05-03T02:55:22.506Z,64.94
2018-05-03T02:58:09.539Z,65.20
2018-05-03T03:00:56.041Z,65.18
2018-05-03T03:03:42.176Z,65.27
2018-05-03T03:06:28.346Z,64.96
2018-05-03T03:23:06.297Z,65.35
2018-05-03T03:26:07.262Z,66.34
2018-05-03T03:28:53.380Z,67.70
2018-05-03T03:31:39.541Z,67.77
2018-05-03T03:34:20.193Z,67.31
2018-05-03T03:37:26.473Z,66.95
2018-05-03T03:40:12.708Z,66.62
2018-05-03T03:56:19.437Z,66.11
2018-05-03T03:58:48.172Z,65.78
2018-05-03T04:01:16.942Z,65.54
2018-05-03T04:03:45.925Z,65.25
2018-05-03T04:06:14.595Z,65.03
2018-05-03T04:08:44.112Z,64.99
2018-05-03T04:11:12.981Z,64.30
2018-05-03T04:13:41.689Z,64.92
2018-05-03T04:16:10.455Z,66.18
2018-05-03T04:18:51.676Z,66.00
2018-05-03T04:21:32.067Z,64.65
2018-05-03T04:37:30.268Z,64.82
2018-05-03T04:39:59.020Z,65.25
2018-05-03T04:42:27.752Z,65.04
2018-05-03T04:44:56.510Z,64.80
2018-05-03T04:47:26.047Z,63.40
2018-05-03T04:49:54.799Z,63.65
2018-05-03T04:52:23.525Z,64.01
2018-05-03T04:54:52.288Z,64.28
2018-05-03T04:57:21.068Z,63.53
2018-05-03T04:59:50.600Z,63.60
2018-05-03T05:02:19.464Z,63.20
2018-05-03T05:04:48.258Z,62.71
2018-05-03T05:07:16.977Z,61.63
2018-05-03T05:09:45.724Z,61.54
2018-05-03T05:12:14.576Z,60.78
2018-05-03T05:14:43.328Z,60.94
2018-05-03T05:17:12.068Z,60.93
2018-05-03T05:19:40.802Z,60.23
2018-05-03T05:22:09.565Z,59.75
2018-05-03T05:24:38.303Z,61.04
2018-05-03T05:27:07.078Z,61.69
2018-05-03T05:29:35.895Z,60.95
2018-05-03T05:32:04.913Z,60.87
2018-05-03T05:34:33.653Z,61.81
2018-05-03T05:37:03.564Z,61.16
2018-05-03T05:39:32.297Z,61.50
2018-05-03T05:42:01.081Z,59.99
2018-05-03T05:44:29.869Z,59.62
2018-05-03T05:46:58.613Z,60.07
2018-05-03T05:49:27.344Z,59.37
2018-05-03T05:51:56.124Z,57.29
2018-05-03T05:54:24.860Z,57.38
2018-05-03T05:56:53.616Z,58.16
2018-05-03T05:59:22.406Z,58.65
2018-05-03T06:01:51.141Z,58.02
2018-05-03T06:04:20.328Z,57.35
2018-05-03T06:06:49.032Z,57.65
2018-05-03T06:09:17.828Z,58.20
2018-05-03T06:11:46.556Z,57.56
2018-05-03T06:14:15.324Z,56.29
2018-05-03T06:16:44.093Z,55.78
2018-05-03T06:19:12.850Z,55.58
2018-05-03T06:21:42.422Z,55.77
2018-05-03T06:24:11.296Z,55.58
2018-05-03T06:26:40.037Z,56.46
2018-05-03T06:29:08.829Z,56.82
2018-05-03T06:31:37.616Z,56.27
2018-05-03T06:34:06.419Z,55.03
2018-05-03T06:36:35.184Z,54.19
2018-05-03T06:39:04.381Z,53.48
2018-05-03T06:41:33.100Z,53.42
2018-05-03T06:44:01.880Z,53.72
2018-05-03T06:46:31.501Z,54.83
2018-05-03T06:49:01.025Z,55.19
2018-05-03T06:51:30.536Z,55.88
2018-05-03T06:53:59.253Z,54.83
2018-05-03T06:56:28.960Z,54.49
2018-05-03T06:58:58.683Z,55.18
2018-05-03T07:01:27.439Z,55.04
2018-05-03T07:03:56.216Z,54.94
2018-05-03T07:06:24.972Z,54.22
2018-05-03T07:08:53.761Z,54.74
2018-05-03T07:11:23.265Z,53.35
2018-05-03T07:13:52.806Z,51.82
2018-05-03T07:16:21.642Z,51.57
2018-05-03T07:18:50.323Z,51.72
2018-05-03T07:21:19.197Z,52.59
2018-05-03T07:23:47.972Z,50.73
2018-05-03T07:26:16.743Z,52.36
2018-05-03T07:28:45.538Z,52.00
2018-05-03T07:31:15.121Z,50.85
2018-05-03T07:33:44.023Z,51.53
2018-05-03T07:36:12.772Z,51.79
2018-05-03T07:38:41.595Z,50.21
2018-05-03T07:41:10.329Z,49.61
2018-05-03T07:43:39.065Z,49.97
2018-05-03T07:46:07.830Z,51.47
2018-05-03T07:48:36.690Z,49.72
2018-05-03T07:51:06.664Z,49.25
2018-05-03T07:53:35.888Z,49.54
2018-05-03T07:56:04.685Z,49.32
2018-05-03T07:58:33.493Z,49.02
2018-05-03T08:01:02.467Z,48.39
2018-05-03T08:03:31.528Z,48.44
2018-05-03T08:06:01.057Z,48.53
2018-05-03T08:08:29.805Z,47.48
2018-05-03T08:10:59.335Z,47.85
2018-05-03T08:13:28.063Z,48.78
2018-05-03T08:15:56.951Z,47.74
2018-05-03T08:18:25.704Z,47.84
2018-05-03T08:20:54.437Z,46.83
2018-05-03T08:23:23.297Z,47.79
2018-05-03T08:25:52.084Z,45.79
2018-05-03T08:28:20.824Z,44.51
2018-05-03T08:30:49.576Z,46.24
2018-05-03T08:33:18.309Z,46.16
2018-05-03T08:35:47.095Z,45.81
2018-05-03T08:38:16.637Z,44.22
2018-05-03T08:40:45.417Z,44.94
2018-05-03T08:43:14.196Z,44.18
2018-05-03T08:45:43.701Z,45.32
2018-05-03T08:48:13.311Z,45.23
2018-05-03T08:50:42.099Z,43.18
2018-05-03T08:53:10.816Z,43.16
2018-05-03T08:55:39.655Z,42.39
2018-05-03T08:58:08.361Z,42.64
2018-05-03T09:00:37.870Z,41.90
2018-05-03T09:03:07.434Z,42.15
2018-05-03T09:05:36.529Z,42.06
2018-05-03T09:08:06.716Z,41.86
2018-05-03T09:10:36.501Z,40.98
2018-05-03T09:13:07.100Z,41.98
2018-05-03T09:15:36.701Z,41.11
2018-05-03T09:18:06.521Z,40.10
2018-05-03T09:20:35.329Z,40.39
2018-05-03T09:23:04.094Z,40.70
2018-05-03T09:25:32.852Z,39.59
2018-05-03T09:28:01.700Z,39.33
2018-05-03T09:30:30.568Z,40.39
2018-05-03T09:32:59.310Z,40.73
2018-05-03T09:35:28.084Z,38.10
2018-05-03T09:37:57.084Z,39.04
2018-05-03T09:40:25.851Z,39.51
2018-05-03T09:42:54.592Z,39.30
2018-05-03T09:45:23.347Z,39.06
2018-05-03T09:47:52.114Z,38.92
2018-05-03T09:50:21.158Z,37.72
2018-05-03T09:52:49.969Z,38.27
2018-05-03T09:55:18.757Z,38.40
2018-05-03T09:57:47.545Z,39.28
2018-05-03T10:00:16.401Z,38.27
2018-05-03T10:02:45.139Z,37.50
2018-05-03T10:05:14.019Z,37.80
2018-05-03T10:07:42.804Z,38.39
2018-05-03T10:10:11.592Z,38.03
2018-05-03T10:12:40.346Z,37.87
2018-05-03T10:15:09.378Z,36.89
2018-05-03T10:17:38.121Z,37.13
2018-05-03T10:20:07.060Z,36.64
2018-05-03T10:22:36.876Z,37.45
2018-05-03T10:25:05.588Z,35.85
2018-05-03T10:27:35.099Z,36.22
2018-05-03T10:30:04.010Z,36.37
2018-05-03T10:32:32.746Z,36.38
2018-05-03T10:35:01.484Z,34.27
2018-05-03T10:37:30.294Z,34.52
2018-05-03T10:39:59.033Z,36.08
2018-05-03T10:42:27.784Z,35.56
2018-05-03T10:44:56.579Z,33.97
2018-05-03T10:47:50.622Z,33.27
2018-05-03T10:50:19.359Z,34.35
2018-05-03T10:52:48.177Z,33.54
2018-05-03T10:55:16.930Z,33.40
2018-05-03T10:57:46.787Z,34.72
2018-05-03T11:00:15.610Z,32.78
2018-05-03T11:02:44.338Z,33.52
2018-05-03T11:05:13.127Z,34.09
2018-05-03T11:07:41.869Z,33.36
2018-05-03T11:10:10.589Z,33.97
2018-05-03T11:12:39.353Z,33.65
2018-05-03T11:15:08.188Z,34.18
2018-05-03T11:17:36.975Z,35.40
2018-05-03T11:20:05.747Z,35.78
2018-05-03T11:22:34.549Z,33.39
2018-05-03T11:25:03.408Z,32.96
2018-05-03T11:27:32.200Z,33.30
2018-05-03T11:30:00.969Z,33.87
2018-05-03T11:32:30.790Z,33.80
2018-05-03T11:35:00.350Z,33.88
2018-05-03T11:37:30.527Z,33.66
2018-05-03T11:40:00.396Z,33.42
2018-05-03T11:42:30.094Z,34.02
2018-05-03T11:45:00.133Z,34.75
2018-05-03T11:47:29.603Z,35.91
2018-05-03T11:49:58.347Z,34.46
2018-05-03T11:52:27.995Z,35.56
2018-05-03T11:54:57.365Z,35.95
2018-05-03T11:57:27.988Z,36.63
2018-05-03T11:59:56.760Z,33.23
2018-05-03T12:02:25.509Z,34.52
2018-05-03T12:04:55.570Z,34.04
2018-05-03T12:07:25.624Z,32.94
2018-05-03T12:09:55.086Z,32.27
2018-05-03T12:12:23.995Z,33.98
2018-05-03T12:14:53.024Z,31.22
2018-05-03T12:17:21.802Z,32.47
2018-05-03T12:19:51.286Z,32.62
2018-05-03T12:22:20.061Z,33.30
2018-05-03T12:24:48.847Z,32.10
2018-05-03T12:27:18.181Z,32.31
2018-05-03T12:29:48.033Z,32.07
2018-05-03T12:32:16.806Z,33.83
2018-05-03T12:34:45.645Z,34.48
2018-05-03T12:37:14.332Z,33.99
2018-05-03T12:39:43.229Z,32.53
2018-05-03T12:42:12.742Z,33.45
2018-05-03T12:44:41.498Z,33.55
2018-05-03T12:47:12.030Z,31.11
2018-05-03T12:49:40.908Z,33.47
2018-05-03T12:52:09.867Z,34.24
2018-05-03T12:54:38.689Z,33.73
2018-05-03T12:57:07.437Z,32.70
2018-05-03T12:59:37.263Z,32.56
2018-05-03T13:02:05.989Z,32.07
2018-05-03T13:04:34.779Z,32.13
2018-05-03T13:07:03.521Z,31.93
2018-05-03T13:09:32.267Z,32.26
2018-05-03T13:12:01.796Z,30.74
2018-05-03T13:14:30.669Z,31.73
2018-05-03T13:16:59.441Z,33.53
2018-05-03T13:19:28.305Z,32.82
2018-05-03T13:21:58.514Z,33.11
2018-05-03T13:24:27.849Z,33.90
2018-05-03T13:26:56.901Z,34.84
2018-05-03T13:29:26.791Z,34.59
2018-05-03T13:31:55.580Z,33.78
2018-05-03T13:34:25.325Z,31.80
2018-05-03T13:36:54.141Z,34.98
2018-05-03T13:39:23.054Z,34.56
2018-05-03T13:41:51.810Z,33.92
2018-05-03T13:44:20.607Z,32.91
2018-05-03T13:46:49.435Z,32.63
2018-05-03T13:49:19.301Z,34.88
2018-05-03T13:51:49.108Z,35.08
2018-05-03T13:54:17.883Z,34.25
2018-05-03T13:56:47.395Z,36.01
2018-05-03T13:59:16.182Z,39.13
2018-05-03T14:01:44.922Z,39.58
2018-05-03T14:04:13.652Z,36.86
2018-05-03T14:06:42.405Z,38.19
2018-05-03T14:09:11.147Z,37.85
2018-05-03T14:11:39.936Z,38.28
2018-05-03T14:14:09.341Z,38.84
2018-05-03T14:16:38.161Z,38.10
2018-05-03T14:19:06.986Z,37.88
2018-05-03T14:21:36.537Z,37.21
2018-05-03T14:24:05.323Z,36.64
2018-05-03T14:26:34.216Z,35.46
2018-05-03T14:29:03.051Z,36.34
2018-05-03T14:31:32.588Z,36.58
2018-05-03T14:34:01.355Z,37.61
2018-05-03T14:36:30.106Z,38.53
2018-05-03T14:39:00.493Z,37.42
2018-05-03T14:41:29.264Z,37.91
2018-05-03T14:43:58.019Z,37.63
2018-05-03T14:46:26.799Z,37.14
2018-05-03T14:48:55.571Z,37.20
2018-05-03T14:51:24.362Z,36.20
2018-05-03T14:53:53.737Z,36.76
2018-05-03T14:56:22.512Z,37.05
2018-05-03T14:58:52.001Z,35.70
2018-05-03T15:01:21.521Z,36.37
2018-05-03T15:03:50.274Z,36.09
2018-05-03T15:06:20.504Z,35.61
2018-05-03T15:08:49.870Z,36.24
2018-05-03T15:11:19.770Z,37.67
2018-05-03T15:13:48.556Z,37.42
2018-05-03T15:16:17.361Z,38.47
2018-05-03T15:18:46.120Z,39.62
2018-05-03T15:21:16.090Z,38.92
2018-05-03T15:23:44.829Z,39.14
2018-05-03T15:26:13.636Z,39.33
2018-05-03T15:28:42.455Z,38.96
2018-05-03T15:31:11.181Z,39.70
2018-05-03T15:33:40.794Z,39.25
2018-05-03T15:36:09.440Z,39.03
2018-05-03T15:38:38.219Z,40.39
2018-05-03T15:41:06.999Z,40.00
2018-05-03T15:43:35.781Z,40.49
2018-05-03T15:46:04.762Z,40.08
2018-05-03T15:48:34.298Z,40.56
2018-05-03T15:51:03.303Z,40.76
2018-05-03T15:53:32.048Z,40.20
2018-05-03T15:56:00.818Z,40.46
2018-05-03T15:58:30.380Z,39.97
2018-05-03T16:01:00.851Z,39.75
2018-05-03T16:03:30.456Z,39.49
2018-05-03T16:06:01.331Z,40.31
2018-05-03T16:08:31.027Z,40.11
2018-05-03T16:11:00.656Z,39.42
2018-05-03T16:13:29.508Z,39.63
2018-05-03T16:15:59.668Z,40.18
2018-05-03T16:18:30.884Z,40.65
2018-05-03T16:21:00.752Z,40.67
2018-05-03T16:23:30.533Z,40.74
2018-05-03T16:26:00.009Z,40.71
2018-05-03T16:28:28.776Z,40.55
2018-05-03T16:30:57.554Z,40.81
2018-05-03T16:33:26.656Z,40.84
2018-05-03T16:35:56.190Z,39.82
2018-05-03T16:38:25.033Z,40.47
2018-05-03T16:40:54.440Z,40.03
2018-05-03T16:43:23.219Z,40.83
2018-05-03T16:45:53.838Z,40.42
2018-05-03T16:48:23.041Z,40.50
2018-05-03T16:50:52.708Z,40.82
2018-05-03T16:53:22.654Z,40.72
2018-05-03T16:55:51.388Z,40.51
2018-05-03T16:58:20.570Z,40.42
2018-05-03T17:00:49.603Z,40.81
2018-05-03T17:03:19.207Z,41.16
2018-05-03T17:05:49.439Z,41.25
2018-05-03T17:08:20.425Z,42.08
2018-05-03T17:10:49.174Z,42.46
2018-05-03T17:13:20.634Z,42.53
2018-05-03T17:15:49.974Z,42.45
2018-05-03T17:18:19.159Z,42.37
2018-05-03T17:20:48.965Z,42.65
2018-05-03T17:23:18.363Z,43.69
2018-05-03T17:25:47.108Z,43.15
2018-05-03T17:28:16.888Z,43.33
2018-05-03T17:30:45.844Z,43.77
2018-05-03T17:33:15.350Z,44.02
2018-05-03T17:35:44.181Z,44.45
2018-05-03T17:38:13.029Z,45.09
2018-05-03T17:40:41.809Z,45.16
2018-05-03T17:43:10.605Z,45.43
2018-05-03T17:45:39.391Z,45.55
2018-05-03T17:48:08.943Z,45.32
2018-05-03T17:50:37.707Z,45.38
2018-05-03T17:53:06.446Z,46.81
2018-05-03T17:55:35.231Z,46.45
2018-05-03T17:58:04.031Z,46.32
2018-05-03T18:00:32.770Z,46.98
2018-05-03T18:03:01.560Z,47.07
2018-05-03T18:05:30.315Z,46.65
2018-05-03T18:07:59.168Z,46.50
2018-05-03T18:10:27.917Z,46.39
2018-05-03T18:12:56.969Z,47.50
2018-05-03T18:15:25.706Z,47.29
2018-05-03T18:17:54.435Z,47.08
2018-05-03T18:20:23.242Z,47.00
2018-05-03T18:22:52.025Z,47.17
2018-05-03T18:25:21.152Z,47.41
2018-05-03T18:27:51.815Z,47.01
2018-05-03T18:30:21.148Z,46.43
2018-05-03T18:32:49.935Z,47.36
2018-05-03T18:35:18.694Z,47.16
2018-05-03T18:37:47.458Z,46.88
2018-05-03T18:40:16.433Z,47.05
2018-05-03T18:42:45.197Z,47.34
2018-05-03T18:45:13.964Z,48.08
2018-05-03T18:47:42.797Z,47.68
2018-05-03T18:50:11.648Z,47.76
2018-05-03T18:52:40.498Z,48.14
2018-05-03T18:55:10.101Z,49.45
2018-05-03T18:57:38.976Z,48.41
2018-05-03T19:00:07.768Z,48.63
2018-05-03T19:02:37.351Z,49.10
2018-05-03T19:05:06.274Z,49.72
2018-05-03T19:07:35.194Z,50.20
2018-05-03T19:10:04.001Z,50.54
2018-05-03T19:12:32.873Z,49.97
2018-05-03T19:15:02.392Z,50.50
2018-05-03T19:17:31.169Z,51.35
2018-05-03T19:19:59.977Z,50.87
2018-05-03T19:22:28.734Z,51.46
2018-05-03T19:24:57.503Z,52.07
2018-05-03T19:27:27.841Z,51.89
2018-05-03T19:32:56.789Z,53.65
2018-05-03T19:35:25.635Z,53.70
2018-05-03T19:37:54.443Z,53.92
2018-05-03T19:40:23.223Z,54.08
2018-05-03T19:42:52.784Z,54.85
2018-05-03T19:45:21.660Z,54.44
2018-05-03T19:47:50.535Z,55.25
2018-05-03T19:50:19.316Z,55.39
2018-05-03T19:52:48.698Z,56.75
2018-05-03T19:55:18.305Z,56.70
2018-05-03T19:57:47.030Z,57.12
2018-05-03T20:00:15.801Z,56.09
2018-05-03T20:02:44.580Z,55.97
2018-05-03T20:05:13.501Z,56.11
2018-05-03T20:07:42.274Z,55.28
2018-05-03T20:10:11.051Z,55.69
2018-05-03T20:12:40.744Z,55.98
2018-05-03T20:15:09.586Z,56.44
2018-05-03T20:17:38.276Z,58.22
2018-05-03T20:20:08.567Z,56.36
2018-05-03T20:22:37.395Z,56.46
2018-05-03T20:25:06.192Z,57.33
2018-05-03T20:27:34.945Z,57.63
2018-05-03T20:30:03.696Z,57.74
2018-05-03T20:32:32.526Z,58.64
2018-05-03T20:35:01.284Z,58.84
2018-05-03T20:37:31.285Z,59.45
2018-05-03T20:40:00.861Z,59.80
2018-05-03T20:42:30.440Z,60.11
2018-05-03T20:44:59.278Z,59.87
2018-05-03T20:47:28.517Z,59.02
2018-05-03T20:49:57.318Z,58.12
2018-05-03T20:52:26.102Z,58.04
2018-05-03T20:54:54.972Z,58.08
2018-05-03T20:57:23.778Z,58.98
2018-05-03T20:59:52.532Z,59.52
2018-05-03T21:02:22.357Z,59.46
2018-05-03T21:04:52.941Z,60.21
2018-05-03T21:07:22.319Z,62.65
2018-05-03T21:09:51.053Z,61.35
2018-05-03T21:12:20.660Z,60.10
2018-05-03T21:14:49.510Z,60.75
2018-05-03T21:17:18.259Z,60.25
2018-05-03T21:19:47.086Z,59.41
2018-05-03T21:22:15.809Z,58.47
2018-05-03T21:24:44.545Z,58.18
2018-05-03T21:27:13.321Z,58.84
2018-05-03T21:29:42.851Z,59.04
2018-05-03T21:32:11.597Z,58.11
2018-05-03T21:34:40.450Z,58.55
2018-05-03T21:37:09.352Z,58.31
2018-05-03T21:39:38.401Z,58.04
2018-05-03T21:42:07.970Z,57.81
2018-05-03T21:44:36.757Z,57.57
2018-05-03T21:47:05.536Z,58.71
2018-05-03T21:49:34.641Z,58.09
2018-05-03T21:52:03.426Z,57.98
2018-05-03T21:54:32.164Z,57.73
2018-05-03T21:57:01.674Z,58.25
2018-05-03T21:59:30.683Z,59.02
2018-05-03T22:01:59.434Z,60.48
2018-05-03T22:04:28.213Z,59.02
2018-05-03T22:06:56.976Z,60.74
2018-05-03T22:09:25.754Z,59.10
2018-05-03T22:11:54.478Z,60.83
2018-05-03T22:14:23.297Z,59.78
2018-05-03T22:16:53.757Z,59.12
2018-05-03T22:19:22.872Z,58.98
2018-05-03T22:21:51.661Z,58.34
2018-05-03T22:24:22.903Z,58.26
2018-05-03T22:26:51.757Z,58.48
2018-05-03T22:29:20.531Z,58.78
2018-05-03T22:31:49.305Z,59.21
2018-05-03T22:34:18.042Z,58.62
2018-05-03T22:36:47.579Z,57.93
2018-05-03T22:39:16.368Z,58.56
2018-05-03T22:41:45.144Z,59.04
2018-05-03T22:44:14.620Z,59.39
2018-05-03T22:46:44.710Z,60.08
2018-05-03T22:49:14.919Z,59.98
2018-05-03T22:51:45.024Z,59.25
2018-05-03T22:54:14.073Z,60.04
2018-05-03T22:56:42.849Z,60.01
2018-05-03T22:59:12.388Z,59.48
2018-05-03T23:01:41.153Z,59.30
2018-05-03T23:04:09.912Z,59.19
2018-05-03T23:06:38.673Z,59.09
2018-05-03T23:09:07.441Z,59.80
2018-05-03T23:11:36.964Z,60.08
2018-05-03T23:14:05.718Z,60.21
2018-05-03T23:16:35.000Z,60.99
2018-05-03T23:19:03.744Z,61.11
2018-05-03T23:21:32.541Z,61.45
2018-05-03T23:24:01.282Z,60.86
2018-05-03T23:26:30.314Z,59.91
2018-05-03T23:28:59.061Z,59.32
2018-05-03T23:31:27.832Z,59.64
2018-05-03T23:33:56.600Z,59.46
2018-05-03T23:36:25.373Z,60.47
2018-05-03T23:38:54.140Z,60.76
2018-05-03T23:41:24.054Z,61.06
2018-05-03T23:43:53.603Z,61.68
2018-05-03T23:46:25.857Z,61.00
2018-05-03T23:48:54.633Z,62.23
2018-05-03T23:51:23.665Z,62.09
2018-05-03T23:53:52.430Z,61.04
2018-05-03T23:56:22.301Z,62.52
2018-05-03T23:58:51.087Z,62.57
